KLAN/LAN METAR and TAF weather

Enter ICAO airport designator
Station Type Date Time Source
KLAN METAR 2018/12/15 19:53 UTC NOAA

KLAN 151953Z 04009KT 6SM BR CLR 02/01 A3016 RMK AO2 SLP222 T00170006


Station Type Date Time Source
KLAN Decoded METAR 2018/12/15 19:53 UTC NOAA

CAPITAL CITY AIRPORT, MI, United States (KLAN) 42-47N 084-35W 264M
Dec 15, 2018 - 02:53 PM EST / 2018.12.15 1953 UTC
Wind: from the NE (040 degrees) at 10 MPH (9 KT):0
Visibility: 6 mile(s):0
Sky conditions: clear
Weather: mist
Temperature: 35.1 F (1.7 C)
Dew Point: 33.1 F (0.6 C)
Relative Humidity: 92%
Pressure (altimeter): 30.16 in. Hg (1021 hPa)
ob: KLAN 151953Z 04009KT 6SM BR CLR 02/01 A3016 RMK AO2 SLP222 T00170006
cycle: 20

Station Type Date Time Source
KLAN TAF 2018/12/15 18:42 UTC NOAA

TAF KLAN 151740Z 1518/1618 04006KT P6SM BKN250
FM160600 VRB03KT 4SM BR FEW200
FM160800 VRB03KT 2SM BR SCT002
FM161500 18004KT 4SM BR SKC
FM161600 22005KT P6SM SKC


Example: see airport list